Time;durP1;ratioP1;P1;durP2;ratioP2;P2;SDS_P1;SDS_P2;PMS_P1;PMS_P2;Temp;Humidity;BMP_temperature;BMP_pressure;BME280_temperature;BME280_humidity;BME280_pressure;Samples;Min_cycle;Max_cycle;Signal;HPM_P1;HPM_P2
2023/05/05 00:02:01;;;;;;;15.10;10.38;;;11.90;99.90;;;;;;5093757;28;20099;-80
2023/05/05 00:04:27;;;;;;;17.65;10.63;;;11.90;99.90;;;;;;5075877;28;20115;-79
2023/05/05 00:06:53;;;;;;;17.90;9.93;;;11.80;99.90;;;;;;5094177;28;20442;-79
2023/05/05 00:09:19;;;;;;;16.25;10.50;;;11.80;99.90;;;;;;5094075;28;20042;-78
2023/05/05 00:11:45;;;;;;;18.73;11.30;;;11.80;99.90;;;;;;5093630;28;20023;-79
2023/05/05 00:14:10;;;;;;;18.98;11.25;;;11.70;99.90;;;;;;5075383;28;20044;-79
2023/05/05 00:16:37;;;;;;;16.08;11.23;;;11.70;99.90;;;;;;5079089;28;20024;-79
2023/05/05 00:19:03;;;;;;;18.23;10.82;;;11.70;99.90;;;;;;5075783;28;20016;-79
2023/05/05 00:21:29;;;;;;;17.27;11.75;;;11.70;99.90;;;;;;5075507;28;20031;-79
2023/05/05 00:23:54;;;;;;;16.42;11.80;;;11.60;99.90;;;;;;5076208;28;20490;-79
2023/05/05 00:26:20;;;;;;;17.80;10.65;;;11.60;99.90;;;;;;5094184;28;20032;-80
2023/05/05 00:28:47;;;;;;;16.73;11.15;;;11.60;99.90;;;;;;5076084;28;20370;-79
2023/05/05 00:31:16;;;;;;;15.02;10.77;;;11.60;99.90;;;;;;5075827;28;20028;-79
2023/05/05 00:33:42;;;;;;;16.10;10.40;;;11.50;99.90;;;;;;5069565;28;20024;-79
2023/05/05 00:36:08;;;;;;;20.55;12.45;;;11.50;99.90;;;;;;5075329;28;20027;-79
2023/05/05 00:38:34;;;;;;;17.45;11.70;;;11.50;99.90;;;;;;5075432;28;20468;-79
2023/05/05 00:41:00;;;;;;;24.85;12.05;;;11.40;99.90;;;;;;5075450;28;20051;-79
2023/05/05 00:43:26;;;;;;;17.25;11.55;;;11.30;99.90;;;;;;5092707;28;20016;-79
2023/05/05 00:46:22;;;;;;;17.63;11.23;;;11.30;99.90;;;;;;5092995;28;20020;-80
2023/05/05 00:48:48;;;;;;;19.00;11.82;;;11.30;99.90;;;;;;5086647;28;20088;-80
2023/05/05 00:51:16;;;;;;;18.98;11.82;;;11.30;99.90;;;;;;5074634;28;20437;-79
2023/05/05 00:53:43;;;;;;;17.55;10.75;;;11.30;99.90;;;;;;5090573;28;20020;-81
2023/05/05 00:56:11;;;;;;;16.23;10.30;;;11.20;99.90;;;;;;5075271;28;20379;-81
2023/05/05 00:58:39;;;;;;;15.18;10.82;;;11.00;99.90;;;;;;5074995;28;20097;-80
2023/05/05 01:01:05;;;;;;;14.10;10.52;;;11.10;99.90;;;;;;5075187;28;20138;-80
2023/05/05 01:03:31;;;;;;;14.15;9.63;;;11.10;99.90;;;;;;5074899;28;20107;-79
2023/05/05 01:06:05;;;;;;;18.10;10.40;;;11.10;99.90;;;;;;5092642;28;20034;-80
2023/05/05 01:08:40;;;;;;;19.08;11.05;;;11.10;99.90;;;;;;5075606;28;20177;-80
2023/05/05 01:11:18;;;;;;;14.90;10.20;;;11.10;99.90;;;;;;5074700;28;20024;-80
2023/05/05 01:14:03;;;;;;;16.27;10.27;;;11.10;99.90;;;;;;5068530;28;20040;-79
2023/05/05 01:16:32;;;;;;;15.65;10.32;;;11.10;99.90;;;;;;5093685;28;20032;-79
2023/05/05 01:18:57;;;;;;;17.90;10.63;;;11.10;99.90;;;;;;5090451;28;20477;-79
2023/05/05 01:21:45;;;;;;;17.10;11.15;;;11.00;99.90;;;;;;5074776;28;20020;-79
2023/05/05 01:24:42;;;;;;;17.98;11.32;;;11.00;99.90;;;;;;5074687;28;20032;-80
2023/05/05 01:27:58;;;;;;;20.92;12.48;;;11.00;99.90;;;;;;5070630;28;20081;-80
2023/05/05 01:30:33;;;;;;;18.20;10.55;;;11.00;99.90;;;;;;5017864;28;20065;-79
2023/05/05 01:33:05;;;;;;;20.05;11.30;;;11.00;99.90;;;;;;5017021;28;20029;-79
2023/05/05 01:35:42;;;;;;;19.30;11.40;;;11.00;99.90;;;;;;5023479;28;20064;-79
2023/05/05 01:38:16;;;;;;;18.50;11.68;;;11.00;99.90;;;;;;5013079;28;20049;-80
2023/05/05 01:40:58;;;;;;;15.95;10.82;;;11.00;99.90;;;;;;5007329;28;20091;-80
2023/05/05 01:43:26;;;;;;;;;;;11.00;99.90;;;;;;5022228;28;20037;-80
2023/05/05 01:45:54;;;;;;;15.57;11.50;;;11.00;99.90;;;;;;5020736;28;19987;-79
2023/05/05 01:48:22;;;;;;;23.75;11.15;;;11.00;99.90;;;;;;5022268;28;20423;-79
2023/05/05 01:50:51;;;;;;;17.63;10.45;;;10.90;99.90;;;;;;5003728;28;20029;-79
2023/05/05 01:53:19;;;;;;;20.60;10.73;;;10.90;99.90;;;;;;5009860;28;20037;-80
2023/05/05 01:55:48;;;;;;;20.08;10.27;;;10.90;99.90;;;;;;5014602;28;20068;-80
2023/05/05 01:58:15;;;;;;;14.93;9.82;;;10.90;99.90;;;;;;5027376;28;20090;-80
2023/05/05 02:00:42;;;;;;;19.58;9.90;;;10.90;99.90;;;;;;5023001;28;20034;-79
2023/05/05 02:03:10;;;;;;;17.58;10.57;;;10.90;99.90;;;;;;5034824;28;20032;-80
2023/05/05 02:05:38;;;;;;;16.38;10.32;;;10.90;99.90;;;;;;5039845;28;20035;-80
2023/05/05 02:08:05;;;;;;;16.48;10.40;;;10.90;99.90;;;;;;5096976;28;20027;-79
2023/05/05 02:10:31;;;;;;;16.33;11.13;;;10.90;99.90;;;;;;5097229;28;20027;-80
2023/05/05 02:13:01;;;;;;;19.83;11.13;;;10.90;99.90;;;;;;5079019;28;20031;-80
2023/05/05 02:15:28;;;;;;;20.10;11.48;;;10.80;99.90;;;;;;5096871;28;20028;-80
2023/05/05 02:17:55;;;;;;;12.65;10.52;;;10.80;99.90;;;;;;5078096;28;20024;-79
2023/05/05 02:20:23;;;;;;;26.73;12.00;;;10.80;99.90;;;;;;5097311;28;20024;-79
2023/05/05 02:22:49;;;;;;;20.13;11.82;;;10.80;99.90;;;;;;5078032;28;20026;-79
2023/05/05 02:25:16;;;;;;;24.80;13.25;;;10.80;99.90;;;;;;5070079;28;20028;-79
2023/05/05 02:27:43;;;;;;;24.00;13.18;;;10.80;99.90;;;;;;5077597;28;20027;-79
2023/05/05 02:30:13;;;;;;;21.27;13.27;;;10.80;99.90;;;;;;5095924;28;20056;-78
2023/05/05 02:32:49;;;;;;;24.05;12.70;;;10.80;99.90;;;;;;5078050;28;20020;-79
2023/05/05 02:35:23;;;;;;;19.58;12.95;;;10.80;99.90;;;;;;5077702;28;20032;-79
2023/05/05 02:38:03;;;;;;;21.40;13.05;;;10.80;99.90;;;;;;5076728;28;20530;-80
2023/05/05 02:40:31;;;;;;;21.08;12.63;;;10.80;99.90;;;;;;5077593;28;20016;-80
2023/05/05 02:43:02;;;;;;;20.67;11.75;;;10.80;99.90;;;;;;5077502;28;20020;-79
2023/05/05 02:45:28;;;;;;;23.70;11.95;;;10.80;99.90;;;;;;5077488;28;20420;-80
2023/05/05 02:47:54;;;;;;;20.75;12.85;;;10.80;99.90;;;;;;5076910;28;20016;-79
2023/05/05 02:50:20;;;;;;;21.13;12.10;;;10.80;99.90;;;;;;5095621;28;20020;-79
2023/05/05 02:52:46;;;;;;;19.08;11.65;;;10.70;99.90;;;;;;5095649;28;20366;-79
2023/05/05 02:55:12;;;;;;;11.57;8.60;;;10.80;99.90;;;;;;5077242;28;20063;-79
2023/05/05 02:57:50;;;;;;;14.75;9.23;;;10.80;99.90;;;;;;5076730;28;20012;-80
2023/05/05 03:00:27;;;;;;;15.25;9.95;;;10.70;99.90;;;;;;5089354;28;20028;-80
2023/05/05 03:03:12;;;;;;;14.57;9.65;;;10.70;99.90;;;;;;5094844;28;20048;-80
2023/05/05 03:06:11;;;;;;;13.32;8.73;;;10.70;99.90;;;;;;5094583;28;20020;-79
2023/05/05 03:08:52;;;;;;;18.35;9.68;;;10.70;99.90;;;;;;5094891;28;20072;-80
2023/05/05 03:11:33;;;;;;;15.63;8.73;;;10.70;99.90;;;;;;5095157;28;20466;-79
2023/05/05 03:14:10;;;;;;;14.38;9.32;;;10.70;99.90;;;;;;5094947;28;20050;-79
2023/05/05 03:16:39;;;;;;;16.65;10.07;;;10.70;99.90;;;;;;5092827;28;20069;-80
2023/05/05 03:19:07;;;;;;;13.93;9.43;;;10.60;99.90;;;;;;5076702;28;20017;-79
2023/05/05 03:21:33;;;;;;;17.15;10.40;;;10.60;99.90;;;;;;5076989;28;20035;-80
2023/05/05 03:23:59;;;;;;;21.10;11.32;;;10.60;99.90;;;;;;5094548;28;20020;-80
2023/05/05 03:26:25;;;;;;;16.45;10.23;;;10.60;99.90;;;;;;5094997;28;20024;-80
2023/05/05 03:28:50;;;;;;;16.73;9.63;;;10.60;99.90;;;;;;5076797;28;20051;-80
2023/05/05 03:31:17;;;;;;;15.73;10.90;;;10.60;99.90;;;;;;5094809;28;20099;-79
2023/05/05 03:33:43;;;;;;;20.98;10.52;;;10.50;99.90;;;;;;5095040;28;20031;-80
2023/05/05 03:36:09;;;;;;;17.58;9.85;;;10.50;99.90;;;;;;5076712;28;20020;-80
2023/05/05 03:38:35;;;;;;;20.98;10.25;;;10.50;99.90;;;;;;5094628;28;20054;-81
2023/05/05 03:41:04;;;;;;;18.67;10.18;;;10.50;99.90;;;;;;5077061;28;20398;-79
2023/05/05 03:43:30;;;;;;;18.73;10.48;;;10.50;99.90;;;;;;5077270;28;20763;-80
2023/05/05 03:45:55;;;;;;;15.43;9.73;;;10.50;99.90;;;;;;5076746;28;20059;-80
2023/05/05 03:48:21;;;;;;;14.80;9.80;;;10.60;99.90;;;;;;5077306;28;20020;-79
2023/05/05 03:50:47;;;;;;;15.90;10.10;;;10.60;99.90;;;;;;5095180;28;20388;-79
2023/05/05 03:53:13;;;;;;;15.07;10.05;;;10.60;99.90;;;;;;5094754;28;20453;-79
2023/05/05 03:55:39;;;;;;;19.20;11.15;;;10.60;99.90;;;;;;5095284;28;20107;-79
2023/05/05 03:58:05;;;;;;;17.83;10.23;;;10.60;99.90;;;;;;5094500;28;20412;-79
2023/05/05 04:00:31;;;;;;;16.30;11.00;;;10.70;99.90;;;;;;5094311;28;20561;-79
2023/05/05 04:02:57;;;;;;;13.05;9.95;;;10.70;99.90;;;;;;5094164;28;20036;-80
2023/05/05 04:05:22;;;;;;;17.77;10.00;;;10.80;99.90;;;;;;5094427;28;20031;-79
2023/05/05 04:07:48;;;;;;;16.08;11.25;;;10.80;99.90;;;;;;5075646;28;20028;-79
2023/05/05 04:10:14;;;;;;;19.83;11.05;;;10.80;99.90;;;;;;5094611;28;20408;-80
2023/05/05 04:12:40;;;;;;;15.52;10.57;;;10.90;99.90;;;;;;5080463;28;20355;-80
2023/05/05 04:15:06;;;;;;;20.67;11.43;;;10.90;99.90;;;;;;5075305;28;20415;-80
2023/05/05 04:17:32;;;;;;;17.08;10.77;;;11.00;99.90;;;;;;5093848;28;20133;-80
2023/05/05 04:19:57;;;;;;;20.20;11.20;;;11.00;99.90;;;;;;5075659;28;20624;-82
2023/05/05 04:22:23;;;;;;;14.07;10.20;;;11.00;99.90;;;;;;5093535;28;20363;-83
2023/05/05 04:24:52;;;;;;;17.10;10.88;;;11.10;99.90;;;;;;5075756;28;20080;-85
2023/05/05 04:27:18;;;;;;;12.40;9.50;;;11.10;99.90;;;;;;5094061;28;20019;-84
2023/05/05 04:29:44;;;;;;;17.02;10.32;;;11.20;99.90;;;;;;5076370;28;20366;-81
2023/05/05 04:32:09;;;;;;;18.35;11.15;;;11.20;99.90;;;;;;5093835;28;20048;-81
2023/05/05 04:34:35;;;;;;;19.02;11.20;;;11.20;99.90;;;;;;5075422;28;20039;-82
2023/05/05 04:37:01;;;;;;;17.88;11.45;;;11.20;99.90;;;;;;5076193;28;20024;-82
2023/05/05 04:39:27;;;;;;;19.67;12.90;;;11.30;99.90;;;;;;5074712;28;20052;-85
2023/05/05 04:41:53;;;;;;;14.63;11.38;;;11.40;99.90;;;;;;5075772;28;20031;-83
2023/05/05 04:44:19;;;;;;;21.70;12.40;;;11.50;99.90;;;;;;5094136;28;20024;-88
2023/05/05 04:46:44;;;;;;;26.42;13.82;;;11.50;99.90;;;;;;5075311;28;20107;-83
2023/05/05 04:49:11;;;;;;;20.20;13.23;;;11.60;99.90;;;;;;5075777;28;20020;-84
2023/05/05 04:51:41;;;;;;;19.02;13.02;;;11.70;99.90;;;;;;5094223;28;20056;-83
2023/05/05 04:54:07;;;;;;;20.85;13.95;;;11.80;99.90;;;;;;5075732;28;20075;-83
2023/05/05 04:56:32;;;;;;;25.58;14.15;;;11.80;99.90;;;;;;5075639;28;20055;-82
2023/05/05 04:58:58;;;;;;;22.27;13.45;;;11.90;99.90;;;;;;5075930;28;20024;-83
2023/05/05 05:01:24;;;;;;;19.08;13.05;;;12.00;99.90;;;;;;5076181;28;20377;-83
2023/05/05 05:03:50;;;;;;;31.17;17.02;;;12.10;99.90;;;;;;5075517;28;20024;-83
2023/05/05 05:06:16;;;;;;;24.88;16.25;;;12.20;99.90;;;;;;5093768;28;20024;-83
2023/05/05 05:08:41;;;;;;;22.90;15.02;;;12.30;99.90;;;;;;5093716;28;20103;-81
2023/05/05 05:11:07;;;;;;;21.15;13.25;;;12.40;99.90;;;;;;5094032;28;20339;-80
2023/05/05 05:13:33;;;;;;;19.20;12.93;;;12.50;99.90;;;;;;5075529;28;20435;-81
2023/05/05 05:16:00;;;;;;;18.17;13.35;;;12.70;99.90;;;;;;5093591;28;20081;-81
2023/05/05 05:18:26;;;;;;;24.15;14.02;;;12.60;99.90;;;;;;5075010;28;20023;-81
2023/05/05 05:20:52;;;;;;;20.02;13.40;;;12.70;99.90;;;;;;5093936;28;20024;-81
2023/05/05 05:23:17;;;;;;;20.75;13.45;;;12.80;99.90;;;;;;5075484;28;20504;-81
2023/05/05 05:25:43;;;;;;;22.50;14.23;;;12.90;99.90;;;;;;5093904;28;20024;-81
2023/05/05 05:28:09;;;;;;;17.33;13.27;;;13.00;99.90;;;;;;5094114;28;20362;-81
2023/05/05 05:30:35;;;;;;;29.58;15.00;;;13.10;99.90;;;;;;5076661;28;20462;-81
2023/05/05 05:33:01;;;;;;;23.13;13.98;;;13.20;99.90;;;;;;5079904;28;20090;-81
2023/05/05 05:35:26;;;;;;;22.27;15.05;;;13.30;99.90;;;;;;5097937;28;20047;-80
2023/05/05 05:37:52;;;;;;;23.70;14.73;;;13.40;99.90;;;;;;5097735;28;20028;-81
2023/05/05 05:40:18;;;;;;;29.77;14.90;;;13.60;99.90;;;;;;5079661;28;20370;-81
2023/05/05 05:42:44;;;;;;;24.35;14.70;;;13.70;99.90;;;;;;5097931;28;20020;-81
2023/05/05 05:45:10;;;;;;;28.35;15.57;;;13.70;99.90;;;;;;5079390;28;20115;-83
2023/05/05 05:47:35;;;;;;;24.98;14.90;;;13.80;99.90;;;;;;5079371;28;20024;-81
2023/05/05 05:50:03;;;;;;;22.00;15.00;;;14.00;99.90;;;;;;5097382;28;20028;-81
2023/05/05 05:52:30;;;;;;;22.63;14.15;;;14.10;99.90;;;;;;5079207;28;20024;-81
2023/05/05 05:54:55;;;;;;;25.77;14.60;;;14.20;99.90;;;;;;5079329;28;20032;-82
2023/05/05 05:57:23;;;;;;;30.27;15.32;;;14.30;99.90;;;;;;5097565;28;20024;-80
2023/05/05 05:59:49;;;;;;;25.10;14.30;;;14.40;99.90;;;;;;5096917;28;20050;-81
2023/05/05 06:02:15;;;;;;;21.65;13.35;;;14.50;99.90;;;;;;5079333;28;20024;-81
2023/05/05 06:04:41;;;;;;;22.50;14.02;;;14.70;99.90;;;;;;5078892;28;20028;-81
2023/05/05 06:07:07;;;;;;;24.77;14.82;;;14.80;99.90;;;;;;5079378;28;20031;-81
2023/05/05 06:09:32;;;;;;;17.33;11.88;;;14.90;99.90;;;;;;5079161;28;20020;-82
2023/05/05 06:11:58;;;;;;;24.98;13.75;;;15.00;99.90;;;;;;5078913;28;20028;-81
2023/05/05 06:14:24;;;;;;;21.17;13.52;;;15.10;99.90;;;;;;5078597;28;20078;-81
2023/05/05 06:16:51;;;;;;;29.23;14.45;;;15.10;99.90;;;;;;5078937;28;20069;-82
2023/05/05 06:19:16;;;;;;;23.40;13.50;;;15.30;99.90;;;;;;5096669;28;20397;-81
2023/05/05 06:21:42;;;;;;;21.80;13.23;;;15.40;99.90;;;;;;5078934;28;20073;-81
2023/05/05 06:24:08;;;;;;;21.77;13.20;;;15.50;99.90;;;;;;5096865;28;20446;-84
2023/05/05 06:26:34;;;;;;;18.90;13.15;;;15.60;99.90;;;;;;5096198;28;20082;-83
2023/05/05 06:28:59;;;;;;;26.23;14.18;;;15.70;99.90;;;;;;5078735;28;20035;-84
2023/05/05 06:31:25;;;;;;;19.92;13.02;;;15.80;99.90;;;;;;5078628;28;20024;-84
2023/05/05 06:33:51;;;;;;;21.27;12.55;;;15.90;99.90;;;;;;5078483;28;20118;-85
2023/05/05 06:36:17;;;;;;;15.32;10.68;;;16.00;99.90;;;;;;5078642;28;20366;-85
2023/05/05 06:38:42;;;;;;;18.40;12.50;;;16.10;99.90;;;;;;5078637;28;20388;-84
2023/05/05 06:41:08;;;;;;;19.35;11.57;;;16.30;99.90;;;;;;5096539;28;20028;-82
2023/05/05 06:43:34;;;;;;;19.83;10.32;;;16.30;99.90;;;;;;5077819;28;20162;-85
2023/05/05 06:46:00;;;;;;;17.83;11.40;;;16.40;99.90;;;;;;5096619;28;20066;-83
2023/05/05 06:48:26;;;;;;;17.65;11.48;;;16.50;99.90;;;;;;5078024;28;20024;-85
2023/05/05 06:50:51;;;;;;;18.35;12.15;;;16.60;99.90;;;;;;5096802;28;20032;-85
2023/05/05 06:53:17;;;;;;;17.45;11.80;;;16.90;99.90;;;;;;5078434;28;20020;-84
2023/05/05 06:55:46;;;;;;;19.00;12.13;;;17.10;99.90;;;;;;5078076;28;20028;-84
2023/05/05 06:58:12;;;;;;;20.75;12.80;;;17.20;99.90;;;;;;5078008;28;20024;-85
2023/05/05 07:00:39;;;;;;;19.08;11.27;;;17.30;99.90;;;;;;5078037;28;20352;-84
2023/05/05 07:03:05;;;;;;;19.08;11.60;;;17.40;99.90;;;;;;5078119;28;20133;-86
2023/05/05 07:05:31;;;;;;;15.77;10.05;;;17.50;99.90;;;;;;5078178;28;20143;-82
2023/05/05 07:07:57;;;;;;;18.48;12.00;;;17.60;99.90;;;;;;5077678;28;20032;-83
2023/05/05 07:10:24;;;;;;;15.77;11.52;;;17.70;99.90;;;;;;5077954;28;20116;-83
2023/05/05 07:12:50;;;;;;;20.17;11.18;;;17.80;99.90;;;;;;5077842;28;20453;-81
2023/05/05 07:15:17;;;;;;;16.40;11.88;;;17.90;99.90;;;;;;5095876;28;20062;-83
2023/05/05 07:17:42;;;;;;;18.63;12.10;;;18.00;99.90;;;;;;5096078;28;20024;-83
2023/05/05 07:20:09;;;;;;;16.05;11.18;;;18.00;99.90;;;;;;5077543;28;20030;-84
2023/05/05 07:22:35;;;;;;;18.35;10.82;;;;;;;;;;5077838;28;20077;-82
2023/05/05 07:25:02;;;;;;;16.02;11.10;;;18.20;99.90;;;;;;5095933;28;20032;-82
2023/05/05 07:27:31;;;;;;;17.13;10.98;;;18.40;99.90;;;;;;5077593;28;20369;-83
2023/05/05 07:29:58;;;;;;;17.23;11.25;;;18.40;99.90;;;;;;5095444;28;20081;-82
2023/05/05 07:32:23;;;;;;;14.50;10.73;;;18.70;99.90;;;;;;5077586;28;20020;-82
2023/05/05 07:34:49;;;;;;;14.40;9.68;;;18.70;99.90;;;;;;5077489;28;20122;-83
2023/05/05 07:37:15;;;;;;;13.18;10.25;;;18.80;99.90;;;;;;5077104;28;20031;-82
2023/05/05 07:39:41;;;;;;;13.18;9.52;;;18.70;99.90;;;;;;5095305;28;20024;-83
2023/05/05 07:42:06;;;;;;;15.90;10.40;;;18.80;99.90;;;;;;5077274;28;20062;-82
2023/05/05 07:44:33;;;;;;;15.63;11.10;;;;;;;;;;5076558;28;20031;-82
2023/05/05 07:46:59;;;;;;;20.02;11.25;;;;;;;;;;5077187;28;20038;-82
2023/05/05 07:49:27;;;;;;;14.73;10.70;;;19.50;99.90;;;;;;5076678;28;20020;-82
2023/05/05 07:51:54;;;;;;;17.25;12.27;;;19.40;99.90;;;;;;5076421;28;20073;-82
2023/05/05 07:54:20;;;;;;;18.10;11.93;;;;;;;;;;5093954;28;20028;-83
2023/05/05 07:56:46;;;;;;;14.25;10.65;;;;;;;;;;5076773;28;20024;-82
2023/05/05 07:59:12;;;;;;;13.32;9.98;;;19.70;99.90;;;;;;5076974;28;20016;-83
2023/05/05 08:01:38;;;;;;;15.23;10.73;;;19.90;99.90;;;;;;5076915;28;20020;-82
2023/05/05 08:04:04;;;;;;;14.73;9.55;;;20.10;99.90;;;;;;5095017;28;20466;-83
2023/05/05 08:06:30;;;;;;;14.63;10.15;;;;;;;;;;5077027;28;20697;-83
2023/05/05 08:09:00;;;;;;;16.88;10.70;;;20.40;99.90;;;;;;5076495;28;20023;-82
2023/05/05 08:11:26;;;;;;;13.80;9.93;;;20.50;99.90;;;;;;5075892;28;20020;-83
2023/05/05 08:13:52;;;;;;;15.57;9.00;;;20.50;99.90;;;;;;5074298;28;20340;-82
2023/05/05 08:16:18;;;;;;;14.55;9.63;;;20.60;98.30;;;;;;5090127;28;20047;-83
2023/05/05 08:18:44;;;;;;;11.63;10.13;;;20.50;97.30;;;;;;5076154;28;20023;-83
2023/05/05 08:21:11;;;;;;;11.90;9.70;;;;;;;;;;5076525;28;20024;-83
2023/05/05 08:23:37;;;;;;;10.38;8.30;;;;;;;;;;5076467;28;20030;-82
2023/05/05 08:26:10;;;;;;;13.52;9.52;;;;;;;;;;5076183;28;20028;-84
2023/05/05 08:28:36;;;;;;;11.48;9.00;;;;;;;;;;5094471;28;20099;-83
2023/05/05 08:31:04;;;;;;;13.02;9.35;;;;;;;;;;5076471;28;20012;-82
2023/05/05 08:33:30;;;;;;;12.60;9.23;;;;;;;;;;5076184;28;20472;-82
2023/05/05 08:35:56;;;;;;;11.98;9.25;;;;;;;;;;5076227;28;20493;-81
2023/05/05 08:38:22;;;;;;;13.73;8.70;;;;;;;;;;5094508;28;20080;-84
2023/05/05 08:40:50;;;;;;;11.43;8.15;;;;;;;;;;5075978;28;20107;-83
2023/05/05 08:43:19;;;;;;;11.40;8.48;;;;;;;;;;5076272;28;20016;-84
2023/05/05 08:45:45;;;;;;;13.93;9.05;;;;;;;;;;5075741;28;20035;-83
2023/05/05 08:48:12;;;;;;;12.68;9.65;;;;;;;;;;5094328;28;20023;-83
2023/05/05 08:50:39;;;;;;;12.38;8.63;;;;;;;;;;5076460;28;20361;-82
2023/05/05 08:53:05;;;;;;;11.30;8.50;;;;;;;;;;5094008;28;20012;-83
2023/05/05 08:55:34;;;;;;;10.15;9.10;;;;;;;;;;5075719;28;20088;-83
2023/05/05 08:58:04;;;;;;;10.35;8.57;;;;;;;;;;5094166;28;20027;-83
2023/05/05 09:00:31;;;;;;;17.92;8.38;;;;;;;;;;5093826;28;20035;-83
2023/05/05 09:02:58;;;;;;;9.32;8.30;;;;;;;;;;5075973;28;20103;-83
2023/05/05 09:05:24;;;;;;;9.98;8.23;;;;;;;;;;5075427;28;20031;-83
2023/05/05 09:07:51;;;;;;;11.52;8.95;;;;;;;;;;5075350;28;20024;-83
2023/05/05 09:10:17;;;;;;;10.80;8.52;;;;;;;;;;5075661;28;20336;-82
2023/05/05 09:12:44;;;;;;;10.30;7.97;;;;;;;;;;5076129;28;20059;-82
2023/05/05 09:15:11;;;;;;;12.20;8.68;;;;;;;;;;5093073;28;20048;-82
2023/05/05 09:17:39;;;;;;;9.05;7.28;;;;;;;;;;5075697;28;20068;-82
2023/05/05 09:20:06;;;;;;;9.15;7.70;;;;;;;;;;5093897;28;20024;-83
2023/05/05 09:22:39;;;;;;;9.50;7.35;;;;;;;;;;5075506;28;20020;-83
2023/05/05 09:25:06;;;;;;;8.38;7.25;;;;;;;;;;5075791;28;20446;-81
2023/05/05 09:27:36;;;;;;;9.13;7.15;;;;;;;;;;5093737;28;20032;-82
2023/05/05 09:30:03;;;;;;;9.10;6.82;;;;;;;;;;5075591;28;20512;-82
2023/05/05 09:32:29;;;;;;;12.40;9.48;;;;;;;;;;5075687;28;20107;-82
2023/05/05 09:34:59;;;;;;;14.07;8.52;;;;;;;;;;5075222;28;20024;-82
2023/05/05 09:37:29;;;;;;;9.00;8.02;;;;;;;;;;5075678;28;20024;-83
2023/05/05 09:39:57;;;;;;;10.00;7.95;;;;;;;;;;5075673;28;20103;-83
2023/05/05 09:42:26;;;;;;;12.20;8.30;;;;;;;;;;5075218;28;20035;-83
2023/05/05 09:44:52;;;;;;;10.07;8.18;;;;;;;;;;5075524;28;20028;-82
2023/05/05 09:47:18;;;;;;;11.90;8.13;;;20.90;80.90;;;;;;5093754;28;20028;-82
2023/05/05 09:49:44;;;;;;;11.00;8.57;;;20.80;83.00;;;;;;5075156;28;20141;-81
2023/05/05 09:52:14;;;;;;;7.35;6.50;;;20.70;82.70;;;;;;5074897;28;20107;-82
2023/05/05 09:54:41;;;;;;;7.90;6.55;;;;;;;;;;5075345;28;20396;-82
2023/05/05 09:57:07;;;;;;;8.43;6.75;;;;;;;;;;5075034;28;20035;-83
2023/05/05 09:59:34;;;;;;;8.13;6.25;;;;;;;;;;5075258;28;20028;-83
2023/05/05 10:02:13;;;;;;;9.88;7.50;;;;;;;;;;5075235;28;20028;-82
2023/05/05 10:04:39;;;;;;;7.80;6.90;;;;;;;;;;5074780;28;20470;-82
2023/05/05 10:07:05;;;;;;;13.23;9.65;;;;;;;;;;5075050;28;20028;-82
2023/05/05 10:09:31;;;;;;;11.07;8.48;;;;;;;;;;5093044;28;20462;-82
2023/05/05 10:12:04;;;;;;;11.68;7.28;;;;;;;;;;5074706;28;20424;-82
2023/05/05 10:14:31;;;;;;;9.90;8.10;;;;;;;;;;5074853;28;20044;-83
2023/05/05 10:16:59;;;;;;;16.52;8.52;;;;;;;;;;5074527;28;20028;-83
2023/05/05 10:19:27;;;;;;;9.32;8.07;;;;;;;;;;5078718;28;20058;-84
2023/05/05 10:22:13;;;;;;;9.18;8.38;;;;;;;;;;5078678;28;20020;-83
2023/05/05 10:24:45;;;;;;;9.68;8.68;;;;;;;;;;5078240;28;20046;-83
2023/05/05 10:27:15;;;;;;;9.27;8.20;;;;;;;;;;5078508;28;20020;-83
2023/05/05 10:29:52;;;;;;;10.32;8.70;;;;;;;;;;5078538;28;20024;-82
2023/05/05 10:32:36;;;;;;;9.27;8.38;;;;;;;;;;5078164;28;20028;-82
2023/05/05 10:35:03;;;;;;;11.07;8.13;;;;;;;;;;5096406;28;20026;-82
2023/05/05 10:37:30;;;;;;;12.18;8.80;;;;;;;;;;5078381;28;20020;-81
2023/05/05 10:39:59;;;;;;;13.20;8.23;;;;;;;;;;5096204;28;20469;-80
2023/05/05 10:42:26;;;;;;;8.93;7.60;;;;;;;;;;5078398;28;20020;-82
2023/05/05 10:44:52;;;;;;;9.52;8.15;;;;;;;;;;5077937;28;20020;-82
2023/05/05 10:47:20;;;;;;;10.20;8.30;;;;;;;;;;5078093;28;20065;-81
2023/05/05 10:49:53;;;;;;;10.52;8.68;;;;;;;;;;5078226;28;20031;-81
2023/05/05 10:52:38;;;;;;;11.57;8.90;;;;;;;;;;5077974;28;20086;-81
2023/05/05 10:55:07;;;;;;;13.48;10.55;;;;;;;;;;5095909;28;20347;-81
2023/05/05 10:57:36;;;;;;;9.13;7.90;;;;;;;;;;5078052;28;20020;-80
2023/05/05 11:00:03;;;;;;;8.18;7.38;;;;;;;;;;5077721;28;20026;-82
2023/05/05 11:02:30;;;;;;;7.50;6.80;;;;;;;;;;5077898;28;20085;-82
2023/05/05 11:05:07;;;;;;;8.48;6.63;;;;;;;;;;5095967;28;20024;-81
2023/05/05 11:07:36;;;;;;;7.25;6.15;;;;;;;;;;5095610;28;20370;-81
2023/05/05 11:10:09;;;;;;;8.88;6.95;;;;;;;;;;5095607;28;20450;-81
2023/05/05 11:12:54;;;;;;;6.80;6.20;;;;;;;;;;5077782;28;20031;-82
2023/05/05 11:15:26;;;;;;;6.90;6.25;;;;;;;;;;5095951;28;20040;-81
2023/05/05 11:17:53;;;;;;;6.03;5.30;;;;;;;;;;5095388;28;20414;-83
2023/05/05 11:20:42;;;;;;;7.78;6.25;;;;;;;;;;5095154;28;20047;-83
2023/05/05 11:23:08;;;;;;;6.40;5.80;;;;;;;;;;5076714;28;20058;-82
2023/05/05 11:25:39;;;;;;;6.80;6.15;;;;;;;;;;5095628;28;20024;-83
2023/05/05 11:28:15;;;;;;;6.38;5.78;;;;;;;;;;5095452;28;20024;-81
2023/05/05 11:30:57;;;;;;;6.32;5.88;;;;;;;;;;5077466;28;20110;-81
2023/05/05 11:33:36;;;;;;;7.28;6.57;;;;;;;;;;5095533;28;20061;-81
2023/05/05 11:36:11;;;;;;;6.38;5.72;;;;;;;;;;5076924;28;20032;-81
2023/05/05 11:38:38;;;;;;;6.22;5.72;;;;;;;;;;5095455;28;20024;-80
2023/05/05 11:41:23;;;;;;;6.38;5.88;;;;;;;;;;5076983;28;20020;-82
2023/05/05 11:43:49;;;;;;;6.70;6.10;;;;;;;;;;5095284;28;20025;-81
2023/05/05 11:46:16;;;;;;;7.10;6.40;;;;;;;;;;5076616;28;20475;-82
2023/05/05 11:48:50;;;;;;;6.78;6.18;;;;;;;;;;5075682;28;20024;-80
2023/05/05 11:51:20;;;;;;;8.90;5.82;;;;;;;;;;5095219;28;20020;-81
2023/05/05 11:53:47;;;;;;;7.72;6.32;;;;;;;;;;5076748;28;20111;-81
2023/05/05 11:56:21;;;;;;;6.88;6.20;;;;;;;;;;5076425;28;20092;-79
2023/05/05 11:59:07;;;;;;;6.85;6.18;;;;;;;;;;5076847;28;20027;-81
2023/05/05 12:01:34;;;;;;;7.57;6.13;;;;;;;;;;5076853;28;20031;-80
2023/05/05 12:04:00;;;;;;;6.43;5.82;;;;;;;;;;5076440;28;20023;-80
2023/05/05 12:06:32;;;;;;;6.80;6.20;;;;;;;;;;5095128;28;20026;-82
2023/05/05 12:08:59;;;;;;;5.80;5.40;;;;;;;;;;5076324;28;20032;-82
2023/05/05 12:11:26;;;;;;;6.15;5.72;;;;;;;;;;5076487;28;20031;-81
2023/05/05 12:14:07;;;;;;;7.05;6.53;;;;;;;;;;5076315;28;20032;-82
2023/05/05 12:16:33;;;;;;;7.88;7.18;;;;;;;;;;5076280;28;20485;-81
2023/05/05 12:19:04;;;;;;;7.47;6.88;;;;;;;;;;5076479;28;20070;-82
2023/05/05 12:21:31;;;;;;;7.40;6.70;;;;;;;;;;5094302;28;20418;-81
2023/05/05 12:23:57;;;;;;;7.15;6.45;;;;;;;;;;5094305;28;20023;-80
2023/05/05 12:26:43;;;;;;;7.15;6.57;;;;;;;;;;5076251;28;20069;-81
2023/05/05 12:29:10;;;;;;;7.20;6.53;;;;;;;;;;5076275;28;20026;-80
2023/05/05 12:31:36;;;;;;;6.60;6.00;;;;;;;;;;5076068;28;20453;-80
2023/05/05 12:34:03;;;;;;;5.90;5.43;;;;;;;;;;5076007;28;20366;-81
2023/05/05 12:36:31;;;;;;;5.97;5.47;;;;;;;;;;5094300;28;20024;-81
2023/05/05 12:38:57;;;;;;;6.57;6.00;;;;;;;;;;5093753;28;20024;-79
2023/05/05 12:41:23;;;;;;;7.32;6.30;;;;;;;;;;5075549;28;20028;-80
2023/05/05 12:43:59;;;;;;;6.00;5.55;;;;;;;;;;5075479;28;20077;-80
2023/05/05 12:46:29;;;;;;;7.35;6.75;;;;;;;;;;5094093;28;20020;-80
2023/05/05 12:49:14;;;;;;;7.18;6.45;;;;;;;;;;5076358;28;20468;-81
2023/05/05 12:51:52;;;;;;;8.00;7.13;;;;;;;;;;5074987;28;20339;-80
2023/05/05 12:54:18;;;;;;;7.47;6.88;;;;;;;;;;5078823;28;20066;-80
2023/05/05 12:56:45;;;;;;;7.32;6.72;;;;;;;;;;5094032;28;20020;-81
2023/05/05 12:59:12;;;;;;;8.00;6.72;;;;;;;;;;5093373;28;20069;-81
2023/05/05 13:02:00;;;;;;;6.13;5.65;;;;;;;;;;5093648;28;20111;-82
2023/05/05 13:04:27;;;;;;;6.43;5.82;;;;;;;;;;5093957;28;20055;-81
2023/05/05 13:07:10;;;;;;;6.60;5.85;;;;;;;;;;5075423;28;20077;-81
2023/05/05 13:09:36;;;;;;;6.15;5.75;;;;;;;;;;5075760;28;20119;-81
2023/05/05 13:12:03;;;;;;;6.78;6.25;;;;;;;;;;5075456;28;20366;-81
2023/05/05 13:14:29;;;;;;;5.70;5.30;;;;;;;;;;5075040;28;20040;-81
2023/05/05 13:16:55;;;;;;;6.07;5.57;;;;;;;;;;5093637;28;20019;-81
2023/05/05 13:19:25;;;;;;;7.18;5.90;;;;;;;;;;5075306;28;20056;-81
2023/05/05 13:21:54;;;;;;;7.25;6.18;;;;;;;;;;5093998;28;20012;-81
2023/05/05 13:24:20;;;;;;;7.45;6.25;;;;;;;;;;5075510;28;20024;-81